Time;durP1;ratioP1;P1;durP2;ratioP2;P2;SDS_P1;SDS_P2;PMS_P1;PMS_P2;Temp;Humidity;BMP_temperature;BMP_pressure;BME280_temperature;BME280_humidity;BME280_pressure;Samples;Min_cycle;Max_cycle;Signal;HPM_P1;HPM_P2
2022/08/14 00:00:49;;;;;;;0.70;0.70;;;22.50;92.60;;;;;;5083520;28;20230;-62
2022/08/14 00:03:21;;;;;;;0.80;0.80;;;22.50;92.60;;;;;;5090109;28;20293;-61
2022/08/14 00:05:49;;;;;;;0.77;0.77;;;22.40;92.90;;;;;;5086064;28;20203;-61
2022/08/14 00:08:16;;;;;;;0.90;0.90;;;22.30;92.80;;;;;;5080427;28;20238;-61
2022/08/14 00:10:44;;;;;;;1.08;0.70;;;22.20;93.00;;;;;;5084705;28;20227;-60
2022/08/14 00:13:11;;;;;;;0.68;0.68;;;22.10;93.30;;;;;;5081217;28;20307;-60
2022/08/14 00:15:41;;;;;;;0.68;0.68;;;22.10;93.40;;;;;;5090308;28;20208;-60
2022/08/14 00:18:10;;;;;;;0.70;0.70;;;22.10;93.40;;;;;;5080828;28;20195;-61
2022/08/14 00:20:39;;;;;;;0.70;0.70;;;22.10;93.50;;;;;;5084956;28;20215;-61
2022/08/14 00:23:09;;;;;;;0.50;0.50;;;22.00;93.50;;;;;;5088251;28;20225;-61
2022/08/14 00:25:36;;;;;;;0.68;0.68;;;22.00;93.60;;;;;;5084771;28;20205;-61
2022/08/14 00:28:04;;;;;;;0.70;0.70;;;22.00;93.70;;;;;;5082929;28;20207;-61
2022/08/14 00:30:31;;;;;;;0.80;0.80;;;21.90;93.80;;;;;;5089604;28;20249;-60
2022/08/14 00:32:58;;;;;;;0.88;0.80;;;21.90;93.80;;;;;;5079912;28;20977;-61
2022/08/14 00:35:25;;;;;;;0.65;0.65;;;21.80;93.90;;;;;;5079644;28;20579;-60
2022/08/14 00:37:52;;;;;;;0.70;0.70;;;21.80;94.00;;;;;;5075103;28;20221;-60
2022/08/14 00:40:21;;;;;;;0.65;0.65;;;21.70;94.10;;;;;;5074850;28;20321;-61
2022/08/14 00:42:48;;;;;;;0.60;0.60;;;21.70;94.30;;;;;;5077844;28;20747;-61
2022/08/14 00:45:16;;;;;;;0.50;0.50;;;21.70;94.30;;;;;;5080212;28;20199;-61
2022/08/14 00:47:44;;;;;;;0.60;0.60;;;21.70;94.30;;;;;;5083968;28;20199;-60
2022/08/14 00:50:13;;;;;;;0.68;0.68;;;21.80;94.40;;;;;;5080336;28;20245;-60
2022/08/14 00:52:41;;;;;;;0.70;0.70;;;21.70;94.30;;;;;;5087239;28;20314;-60
2022/08/14 00:55:09;;;;;;;0.60;0.60;;;21.70;94.40;;;;;;5086253;28;20234;-60
2022/08/14 00:57:38;;;;;;;0.60;0.60;;;21.50;94.60;;;;;;5090433;28;20203;-60
2022/08/14 01:00:11;;;;;;;0.90;0.90;;;21.30;95.00;;;;;;5082565;28;20590;-60
2022/08/14 01:02:40;;;;;;;0.50;0.50;;;21.20;95.20;;;;;;5084304;28;20245;-62
2022/08/14 01:05:22;;;;;;;0.70;0.70;;;21.00;95.90;;;;;;5085821;28;20213;-62
2022/08/14 01:07:50;;;;;;;0.80;0.80;;;21.00;95.70;;;;;;5085298;28;20699;-61
2022/08/14 01:10:18;;;;;;;0.60;0.60;;;21.00;95.70;;;;;;5082004;28;20203;-61
2022/08/14 01:12:47;;;;;;;0.60;0.60;;;21.00;95.80;;;;;;5084117;28;20306;-61
2022/08/14 01:15:15;;;;;;;0.70;0.70;;;21.00;95.90;;;;;;5086540;28;20661;-61
2022/08/14 01:23:14;;;;;;;0.63;0.63;;;20.80;96.40;;;;;;5087937;28;20225;-61
2022/08/14 01:25:41;;;;;;;0.68;0.68;;;20.70;96.50;;;;;;5080083;28;20206;-61
2022/08/14 01:28:09;;;;;;;0.80;0.80;;;20.80;96.80;;;;;;5085262;28;20245;-60
2022/08/14 01:30:37;;;;;;;0.70;0.70;;;20.70;96.70;;;;;;5084861;28;20196;-60
2022/08/14 01:33:05;;;;;;;0.70;0.70;;;20.70;96.70;;;;;;5079793;28;20231;-60
2022/08/14 01:35:32;;;;;;;0.68;0.68;;;20.70;97.00;;;;;;5081115;28;20204;-60
2022/08/14 01:37:59;;;;;;;0.68;0.68;;;20.70;97.20;;;;;;5085308;28;20675;-60
2022/08/14 01:40:30;;;;;;;0.70;0.70;;;20.70;97.10;;;;;;5083654;28;20219;-60
2022/08/14 01:42:57;;;;;;;0.63;0.63;;;20.70;97.30;;;;;;5084933;28;20227;-61
2022/08/14 01:45:24;;;;;;;0.65;0.65;;;20.70;97.50;;;;;;5078412;28;20676;-60
2022/08/14 01:47:52;;;;;;;0.70;0.70;;;20.60;97.70;;;;;;5071781;28;20203;-61
2022/08/14 01:50:19;;;;;;;0.60;0.60;;;20.60;97.80;;;;;;5084922;28;20237;-61
2022/08/14 01:52:46;;;;;;;0.80;0.80;;;20.60;97.90;;;;;;5075336;28;20713;-61
2022/08/14 01:55:15;;;;;;;0.73;0.73;;;20.50;98.00;;;;;;5087916;28;20199;-60
2022/08/14 01:57:48;;;;;;;0.77;0.77;;;20.60;98.00;;;;;;5089398;28;20308;-60
2022/08/14 02:00:17;;;;;;;0.60;0.60;;;20.60;98.00;;;;;;5080588;28;20227;-60
2022/08/14 02:02:44;;;;;;;0.80;0.80;;;20.60;98.10;;;;;;5085563;28;20262;-60
2022/08/14 02:05:12;;;;;;;0.60;0.60;;;20.50;98.70;;;;;;5073766;28;20207;-60
2022/08/14 02:07:39;;;;;;;1.00;1.00;;;20.50;98.50;;;;;;5080098;28;20203;-60
2022/08/14 02:10:11;;;;;;;0.63;0.63;;;20.50;98.60;;;;;;5080955;28;20201;-59
2022/08/14 02:12:39;;;;;;;2.28;0.90;;;20.50;98.60;;;;;;5088519;28;20223;-59
2022/08/14 02:15:10;;;;;;;0.60;0.60;;;20.50;99.00;;;;;;5078305;28;20662;-59
2022/08/14 02:17:38;;;;;;;0.73;0.70;;;20.50;98.60;;;;;;5080474;28;20207;-60
2022/08/14 02:20:07;;;;;;;0.68;0.68;;;20.50;98.70;;;;;;5083077;28;20278;-59
2022/08/14 02:22:37;;;;;;;0.70;0.70;;;20.40;98.70;;;;;;5082111;28;20496;-59
2022/08/14 02:25:04;;;;;;;0.63;0.63;;;20.40;98.80;;;;;;5087655;28;20632;-59
2022/08/14 02:27:31;;;;;;;0.88;0.85;;;20.30;99.20;;;;;;5078720;28;20222;-61
2022/08/14 02:29:58;;;;;;;0.88;0.88;;;20.20;99.30;;;;;;5080746;28;20547;-61
2022/08/14 02:32:27;;;;;;;0.60;0.60;;;20.20;99.60;;;;;;5084329;28;20218;-61
2022/08/14 02:34:53;;;;;;;0.80;0.80;;;20.20;99.90;;;;;;5073707;28;20301;-61
2022/08/14 02:37:22;;;;;;;0.70;0.70;;;20.10;99.90;;;;;;5085058;28;20218;-60
2022/08/14 02:39:49;;;;;;;0.77;0.70;;;20.10;99.90;;;;;;5078248;28;20194;-59
2022/08/14 02:42:20;;;;;;;0.70;0.70;;;20.00;99.90;;;;;;5085768;28;20227;-59
2022/08/14 02:44:48;;;;;;;0.90;0.90;;;20.00;99.90;;;;;;5084418;28;20284;-59
2022/08/14 02:47:16;;;;;;;0.70;0.70;;;19.90;99.90;;;;;;5077897;28;20256;-59
2022/08/14 02:49:44;;;;;;;0.80;0.80;;;19.90;99.90;;;;;;5081500;28;20199;-61
2022/08/14 02:52:11;;;;;;;0.60;0.60;;;19.80;99.90;;;;;;5085777;28;20257;-59
2022/08/14 02:54:39;;;;;;;0.85;0.85;;;19.80;99.90;;;;;;5087401;28;20199;-60
2022/08/14 02:57:06;;;;;;;0.50;0.50;;;19.80;99.90;;;;;;5081375;28;20722;-59
2022/08/14 02:59:36;;;;;;;0.80;0.80;;;19.70;99.90;;;;;;5076572;28;20195;-61
2022/08/14 03:02:05;;;;;;;0.70;0.70;;;19.70;99.90;;;;;;5079971;28;20295;-61
2022/08/14 03:04:32;;;;;;;0.50;0.50;;;19.70;99.90;;;;;;5085184;28;20203;-61
2022/08/14 03:07:00;;;;;;;0.80;0.80;;;19.60;99.90;;;;;;5083168;28;20607;-61
2022/08/14 03:09:28;;;;;;;0.68;0.68;;;19.60;99.90;;;;;;5084065;28;20207;-59
2022/08/14 03:11:55;;;;;;;0.80;0.80;;;19.60;99.90;;;;;;5083946;28;20612;-60
2022/08/14 03:14:24;;;;;;;0.65;0.65;;;19.50;99.90;;;;;;5080695;28;20313;-60
2022/08/14 03:16:51;;;;;;;0.70;0.70;;;19.50;99.90;;;;;;5075058;28;20203;-60
2022/08/14 03:19:18;;;;;;;0.70;0.70;;;19.50;99.90;;;;;;5085590;28;20199;-60
2022/08/14 03:21:45;;;;;;;0.68;0.68;;;19.40;99.90;;;;;;5075069;28;20252;-60
2022/08/14 03:24:14;;;;;;;0.70;0.70;;;19.30;99.90;;;;;;5079514;28;20260;-61
2022/08/14 03:26:42;;;;;;;0.80;0.75;;;19.30;99.90;;;;;;5082620;28;20195;-61
2022/08/14 03:29:12;;;;;;;0.70;0.70;;;19.20;99.90;;;;;;5079387;28;20207;-61
2022/08/14 03:31:39;;;;;;;0.63;0.63;;;19.10;99.90;;;;;;5078832;28;20233;-61
2022/08/14 03:34:08;;;;;;;1.20;0.85;;;19.10;99.90;;;;;;5077307;28;20206;-61
2022/08/14 03:36:37;;;;;;;0.77;0.77;;;19.10;99.90;;;;;;5090174;28;20200;-61
2022/08/14 03:39:06;;;;;;;0.80;0.80;;;19.10;99.90;;;;;;5084984;28;20202;-61
2022/08/14 03:41:35;;;;;;;5.28;0.98;;;19.00;99.90;;;;;;5078812;28;20226;-60
2022/08/14 03:44:04;;;;;;;0.70;0.70;;;19.00;99.90;;;;;;5082683;28;20225;-61
2022/08/14 03:46:34;;;;;;;0.63;0.63;;;18.90;99.90;;;;;;5086145;28;20596;-59
2022/08/14 03:49:01;;;;;;;0.65;0.65;;;18.90;99.90;;;;;;5085792;28;20320;-59
2022/08/14 03:51:28;;;;;;;0.68;0.68;;;18.90;99.90;;;;;;5082617;28;20226;-61
2022/08/14 03:53:57;;;;;;;0.70;0.70;;;18.90;99.90;;;;;;5086477;28;20202;-60
2022/08/14 03:56:26;;;;;;;0.80;0.80;;;18.70;99.90;;;;;;5088858;28;20208;-61
2022/08/14 03:58:59;;;;;;;0.63;0.63;;;18.60;99.90;;;;;;5085462;28;20653;-62
2022/08/14 04:01:26;;;;;;;0.75;0.75;;;18.50;99.90;;;;;;5087072;28;20313;-61
2022/08/14 04:03:56;;;;;;;0.88;0.88;;;18.50;99.90;;;;;;5083069;28;20206;-59
2022/08/14 04:06:25;;;;;;;0.77;0.77;;;18.50;99.90;;;;;;5079528;28;20206;-59
2022/08/14 04:08:54;;;;;;;0.85;0.70;;;18.40;99.90;;;;;;5083167;28;20235;-61
2022/08/14 04:11:22;;;;;;;0.80;0.80;;;18.40;99.90;;;;;;5089824;28;20612;-61
2022/08/14 04:13:49;;;;;;;0.70;0.70;;;18.30;99.90;;;;;;5083394;28;20282;-59
2022/08/14 04:16:19;;;;;;;0.60;0.60;;;18.40;99.90;;;;;;5090446;28;20297;-61
2022/08/14 04:18:48;;;;;;;0.52;0.52;;;18.30;99.90;;;;;;5081901;28;20203;-60
2022/08/14 04:21:19;;;;;;;0.75;0.75;;;18.30;99.90;;;;;;5078204;28;20223;-60
2022/08/14 04:23:47;;;;;;;0.68;0.68;;;18.40;99.90;;;;;;5089679;28;20237;-61
2022/08/14 04:26:18;;;;;;;0.70;0.70;;;18.40;99.90;;;;;;5078718;28;20576;-60
2022/08/14 04:28:45;;;;;;;0.80;0.80;;;18.50;99.90;;;;;;5089940;28;20225;-61
2022/08/14 04:31:13;;;;;;;0.70;0.70;;;18.50;99.90;;;;;;5083135;28;22023;-59
2022/08/14 04:33:42;;;;;;;1.13;0.90;;;18.50;99.90;;;;;;5091049;28;20633;-59
2022/08/14 04:36:09;;;;;;;0.80;0.80;;;18.50;99.90;;;;;;5082439;28;20286;-60
2022/08/14 04:44:14;;;;;;;0.93;0.77;;;18.60;99.90;;;;;;5077829;28;20203;-58
2022/08/14 04:48:11;;;;;;;1.45;1.00;;;18.60;99.90;;;;;;5083569;28;20199;-59
2022/08/14 04:49:31;;;;;;;0.80;0.80;;;18.60;99.90;;;;;;5085564;28;20206;-59
2022/08/14 04:51:59;;;;;;;1.08;0.77;;;18.60;99.90;;;;;;5077496;28;20223;-59
2022/08/14 04:54:27;;;;;;;1.08;1.08;;;18.60;99.90;;;;;;5086194;28;20214;-59
2022/08/14 04:56:55;;;;;;;0.65;0.65;;;18.60;99.90;;;;;;5084278;28;20252;-59
2022/08/14 04:59:23;;;;;;;1.27;0.80;;;18.70;99.90;;;;;;5085452;28;20206;-59
2022/08/14 05:01:52;;;;;;;1.73;0.77;;;18.80;99.90;;;;;;5085808;28;20237;-59
2022/08/14 05:04:19;;;;;;;0.90;0.90;;;18.90;99.90;;;;;;5086014;28;20287;-59
2022/08/14 05:06:49;;;;;;;0.55;0.55;;;18.90;99.90;;;;;;5088700;28;20293;-59
2022/08/14 05:09:17;;;;;;;0.70;0.70;;;18.90;99.90;;;;;;5089538;28;20218;-61
2022/08/14 05:11:44;;;;;;;0.70;0.70;;;18.80;99.90;;;;;;5091041;28;20285;-61
2022/08/14 05:14:11;;;;;;;0.80;0.80;;;18.80;99.90;;;;;;5095441;28;20678;-61
2022/08/14 05:16:38;;;;;;;1.20;0.82;;;18.80;99.90;;;;;;5087343;28;20222;-60
2022/08/14 05:19:07;;;;;;;0.80;0.80;;;18.80;99.90;;;;;;5082712;28;20294;-60
2022/08/14 05:21:34;;;;;;;0.73;0.73;;;18.80;99.90;;;;;;5062617;28;20548;-60
2022/08/14 05:24:03;;;;;;;1.13;1.00;;;18.80;99.90;;;;;;5072243;28;20204;-61
2022/08/14 05:26:30;;;;;;;0.63;0.63;;;18.90;99.90;;;;;;5073974;28;20232;-60
2022/08/14 05:28:56;;;;;;;0.80;0.80;;;19.00;99.90;;;;;;5076084;28;20299;-60
2022/08/14 05:31:23;;;;;;;0.70;0.70;;;19.10;99.90;;;;;;5077850;28;20239;-61
2022/08/14 05:33:50;;;;;;;0.80;0.80;;;19.10;99.90;;;;;;5081011;28;20203;-61
2022/08/14 05:36:17;;;;;;;0.70;0.70;;;19.20;99.90;;;;;;5078634;28;20199;-60
2022/08/14 05:38:46;;;;;;;0.70;0.70;;;19.30;99.90;;;;;;5086706;28;20213;-58
2022/08/14 05:41:18;;;;;;;0.70;0.70;;;19.50;99.90;;;;;;5076883;28;20235;-60
2022/08/14 05:43:47;;;;;;;0.60;0.60;;;19.60;99.90;;;;;;5073158;28;20562;-60
2022/08/14 05:46:17;;;;;;;1.23;0.95;;;19.70;99.90;;;;;;5075309;28;20294;-59
2022/08/14 05:48:47;;;;;;;0.90;0.90;;;19.90;99.90;;;;;;5077122;28;20228;-60
2022/08/14 05:51:14;;;;;;;0.65;0.65;;;20.00;99.90;;;;;;5081352;28;20227;-58
2022/08/14 05:53:41;;;;;;;0.60;0.60;;;20.10;99.90;;;;;;5083411;28;20230;-59
2022/08/14 05:56:09;;;;;;;0.80;0.80;;;20.20;99.90;;;;;;5079360;28;20209;-59
2022/08/14 05:58:37;;;;;;;0.70;0.70;;;20.40;99.90;;;;;;5081432;28;20241;-59
2022/08/14 06:01:04;;;;;;;1.00;1.00;;;20.50;99.90;;;;;;5082937;28;20783;-59
2022/08/14 06:03:33;;;;;;;0.90;0.90;;;20.60;99.90;;;;;;5084666;28;20293;-58
2022/08/14 06:06:00;;;;;;;1.10;1.10;;;20.60;99.90;;;;;;5074852;28;20293;-59
2022/08/14 06:08:29;;;;;;;1.20;1.20;;;20.60;99.90;;;;;;5084501;28;20234;-59
2022/08/14 06:11:02;;;;;;;1.10;1.10;;;20.80;99.90;;;;;;5082909;28;20697;-59
2022/08/14 06:13:30;;;;;;;1.05;1.05;;;21.00;99.90;;;;;;5074113;28;20191;-59
2022/08/14 06:15:58;;;;;;;0.90;0.90;;;21.10;99.90;;;;;;5079027;28;20253;-59
2022/08/14 06:18:25;;;;;;;2.28;0.90;;;21.20;99.90;;;;;;5078600;28;20208;-60
2022/08/14 06:20:54;;;;;;;0.90;0.90;;;21.30;99.90;;;;;;5080658;28;20199;-59
2022/08/14 06:23:21;;;;;;;0.80;0.80;;;21.40;99.90;;;;;;5085615;28;20194;-59
2022/08/14 06:25:48;;;;;;;0.75;0.75;;;21.50;99.90;;;;;;5081548;28;20585;-59
2022/08/14 06:28:18;;;;;;;1.00;0.90;;;21.60;99.90;;;;;;5092543;28;20206;-59
2022/08/14 06:30:47;;;;;;;0.80;0.80;;;21.60;99.90;;;;;;5088889;28;20278;-59
2022/08/14 06:33:16;;;;;;;0.80;0.80;;;21.70;99.90;;;;;;5069318;28;20244;-64
2022/08/14 06:35:43;;;;;;;0.77;0.77;;;21.90;99.90;;;;;;5083775;28;20208;-59
2022/08/14 06:38:16;;;;;;;0.80;0.80;;;22.10;99.90;;;;;;5080401;28;20294;-59
2022/08/14 06:40:43;;;;;;;0.73;0.73;;;22.20;99.90;;;;;;5087551;28;20214;-59
2022/08/14 06:43:14;;;;;;;0.82;0.82;;;22.30;99.90;;;;;;5087000;28;20226;-59
2022/08/14 06:45:42;;;;;;;0.82;0.82;;;22.40;99.90;;;;;;5075061;28;20665;-59
2022/08/14 06:48:22;;;;;;;1.15;1.05;;;22.50;99.90;;;;;;5078149;28;20207;-59
2022/08/14 06:50:52;;;;;;;0.85;0.85;;;22.60;99.90;;;;;;5075122;28;20252;-59
2022/08/14 06:53:19;;;;;;;1.10;1.00;;;22.60;99.90;;;;;;5075432;28;20284;-60
2022/08/14 06:55:47;;;;;;;1.42;1.02;;;22.70;99.90;;;;;;5069919;28;20204;-60
2022/08/14 06:58:15;;;;;;;1.08;0.98;;;22.80;99.90;;;;;;5083411;28;20249;-60
2022/08/14 07:05:44;;;;;;;0.77;0.77;;;22.90;99.90;;;;;;5074523;28;20716;-59
2022/08/14 07:06:19;;;;;;;0.90;0.90;;;23.20;99.90;;;;;;5076346;28;20262;-60
2022/08/14 07:08:46;;;;;;;0.77;0.77;;;23.30;99.90;;;;;;5080767;28;20246;-60
2022/08/14 07:11:13;;;;;;;2.25;0.98;;;23.40;99.90;;;;;;5087420;28;20202;-61
2022/08/14 07:13:41;;;;;;;1.10;1.00;;;23.40;99.90;;;;;;5084915;28;20290;-62
2022/08/14 07:16:11;;;;;;;0.98;0.98;;;23.30;99.90;;;;;;5080961;28;20291;-61
2022/08/14 07:18:40;;;;;;;0.90;0.90;;;23.20;99.90;;;;;;5076004;28;20203;-60
2022/08/14 07:21:08;;;;;;;1.20;1.00;;;23.40;99.90;;;;;;5083988;28;20198;-60
2022/08/14 07:23:35;;;;;;;1.10;1.10;;;23.60;99.90;;;;;;5081265;28;20203;-60
2022/08/14 07:26:04;;;;;;;1.30;1.30;;;23.60;99.90;;;;;;5092260;28;20694;-61
2022/08/14 07:28:33;;;;;;;1.30;1.20;;;23.50;99.90;;;;;;5082751;28;20282;-61
2022/08/14 07:31:01;;;;;;;1.17;1.10;;;23.50;99.90;;;;;;5083654;28;20573;-60
2022/08/14 07:33:31;;;;;;;1.50;1.40;;;23.40;99.90;;;;;;5060788;28;20200;-60
2022/08/14 07:36:03;;;;;;;1.20;1.20;;;23.80;99.90;;;;;;5083290;28;20210;-60
2022/08/14 07:38:30;;;;;;;1.63;1.52;;;23.80;99.90;;;;;;5074254;28;20206;-61
2022/08/14 07:40:58;;;;;;;1.10;1.10;;;23.90;99.90;;;;;;5079893;28;20203;-60
2022/08/14 07:43:25;;;;;;;1.73;1.33;;;24.00;99.90;;;;;;5073167;28;20219;-60
2022/08/14 07:45:52;;;;;;;1.00;1.00;;;24.10;99.90;;;;;;5081457;28;20253;-61
2022/08/14 07:48:19;;;;;;;1.10;1.10;;;24.10;99.90;;;;;;5082766;28;20289;-60
2022/08/14 07:50:49;;;;;;;1.73;1.63;;;24.20;99.90;;;;;;5084256;28;20297;-59
2022/08/14 07:53:18;;;;;;;1.13;1.08;;;24.30;99.90;;;;;;5070878;28;20235;-61
2022/08/14 07:55:46;;;;;;;1.55;1.38;;;24.40;99.90;;;;;;5082116;28;20210;-59
2022/08/14 07:58:14;;;;;;;1.52;1.10;;;24.40;99.90;;;;;;5078075;28;20253;-59
2022/08/14 08:00:41;;;;;;;0.90;0.90;;;24.60;99.90;;;;;;5081938;28;20203;-61
2022/08/14 08:03:09;;;;;;;1.17;1.10;;;24.80;99.90;;;;;;5074330;28;20835;-60
2022/08/14 08:05:37;;;;;;;1.23;1.13;;;24.90;99.90;;;;;;5081101;28;20704;-60
2022/08/14 08:08:05;;;;;;;1.05;1.05;;;24.90;99.90;;;;;;5084219;28;20293;-60
2022/08/14 08:10:37;;;;;;;1.50;1.40;;;25.00;99.90;;;;;;5075331;28;20207;-61
2022/08/14 08:13:09;;;;;;;1.05;1.00;;;25.20;99.90;;;;;;5089871;28;20223;-60
2022/08/14 08:15:39;;;;;;;1.00;1.00;;;25.50;99.90;;;;;;5078038;28;20203;-60
2022/08/14 08:18:08;;;;;;;3.10;1.05;;;25.60;99.90;;;;;;5095160;28;20305;-61
2022/08/14 08:20:37;;;;;;;1.75;1.20;;;25.60;99.90;;;;;;5081532;28;20297;-61
2022/08/14 08:23:06;;;;;;;1.17;1.00;;;25.60;99.90;;;;;;5083541;28;20700;-61
2022/08/14 08:25:36;;;;;;;1.38;1.08;;;25.60;99.90;;;;;;5083699;28;20242;-61
2022/08/14 08:28:06;;;;;;;0.88;0.88;;;25.60;99.90;;;;;;5083803;28;20657;-60
2022/08/14 08:30:34;;;;;;;1.00;1.00;;;25.70;99.90;;;;;;5072439;28;20684;-59
2022/08/14 08:33:01;;;;;;;0.90;0.90;;;25.80;99.90;;;;;;5090293;28;20593;-59
2022/08/14 08:35:32;;;;;;;0.80;0.80;;;26.10;99.90;;;;;;5082211;28;20199;-61
2022/08/14 08:38:03;;;;;;;0.90;0.90;;;26.20;99.90;;;;;;5073041;28;20195;-61
2022/08/14 08:40:34;;;;;;;0.90;0.90;;;26.50;99.90;;;;;;5084781;28;20259;-60
2022/08/14 08:43:05;;;;;;;0.93;0.93;;;26.40;99.80;;;;;;5086587;28;20235;-60
2022/08/14 08:45:33;;;;;;;1.00;1.00;;;26.40;99.70;;;;;;5084666;28;20200;-60
2022/08/14 08:48:01;;;;;;;0.80;0.80;;;26.40;99.40;;;;;;5080577;28;20202;-60
2022/08/14 08:50:31;;;;;;;0.93;0.90;;;26.40;99.60;;;;;;5082627;28;20738;-60
2022/08/14 08:53:01;;;;;;;1.05;0.98;;;26.50;99.70;;;;;;5074044;28;20237;-60
2022/08/14 08:55:32;;;;;;;0.82;0.82;;;26.70;99.90;;;;;;5086795;28;20579;-61
2022/08/14 08:58:05;;;;;;;1.30;1.10;;;27.00;99.60;;;;;;5077702;28;20235;-60
2022/08/14 09:00:34;;;;;;;1.05;0.90;;;27.10;99.60;;;;;;5078094;28;20238;-60
2022/08/14 09:03:05;;;;;;;1.10;1.00;;;27.30;99.50;;;;;;5083433;28;20663;-60
2022/08/14 09:05:36;;;;;;;0.70;0.70;;;27.60;99.10;;;;;;5082296;28;20661;-60
2022/08/14 09:08:18;;;;;;;1.08;0.90;;;27.80;98.60;;;;;;5083418;28;20653;-60
2022/08/14 09:10:48;;;;;;;0.70;0.70;;;27.90;98.50;;;;;;5084413;28;20191;-60
2022/08/14 09:13:17;;;;;;;1.75;0.90;;;27.90;97.90;;;;;;5088522;28;20254;-61
2022/08/14 09:15:46;;;;;;;0.80;0.80;;;28.10;97.90;;;;;;5084255;28;20217;-63
2022/08/14 09:18:16;;;;;;;0.80;0.80;;;28.30;97.50;;;;;;5083064;28;20297;-59
2022/08/14 09:20:44;;;;;;;1.02;0.93;;;28.50;97.50;;;;;;5084378;28;20244;-60
2022/08/14 09:23:13;;;;;;;3.13;1.30;;;28.60;96.30;;;;;;5081248;28;20231;-59
2022/08/14 09:25:41;;;;;;;0.90;0.90;;;28.70;96.50;;;;;;5090839;28;20238;-60
2022/08/14 09:28:09;;;;;;;0.75;0.75;;;28.90;96.00;;;;;;5084897;28;20286;-59
2022/08/14 09:30:43;;;;;;;1.05;1.00;;;29.10;95.90;;;;;;5085983;28;20211;-59
2022/08/14 09:33:43;;;;;;;0.93;0.93;;;29.30;95.20;;;;;;5088091;28;20284;-60
2022/08/14 09:36:35;;;;;;;1.20;1.00;;;29.40;95.00;;;;;;5062494;28;20623;-59
2022/08/14 09:39:14;;;;;;;0.77;0.77;;;29.50;94.30;;;;;;5084932;28;20226;-59
2022/08/14 09:41:53;;;;;;;0.70;0.70;;;29.40;94.10;;;;;;5091802;28;20777;-59
2022/08/14 09:44:33;;;;;;;0.77;0.77;;;29.40;93.80;;;;;;5084211;28;20202;-59
2022/08/14 09:47:02;;;;;;;1.15;0.90;;;29.60;94.00;;;;;;5076562;28;20298;-60
2022/08/14 09:49:33;;;;;;;3.65;1.25;;;29.80;93.60;;;;;;5079025;28;20868;-59
2022/08/14 09:52:05;;;;;;;0.60;0.60;;;29.90;93.30;;;;;;5071311;28;20265;-60
2022/08/14 09:54:38;;;;;;;0.73;0.73;;;30.00;93.00;;;;;;5078879;28;20195;-60
2022/08/14 09:57:08;;;;;;;1.25;0.90;;;30.10;93.10;;;;;;5084868;28;20671;-60
2022/08/14 09:59:42;;;;;;;0.90;0.75;;;30.10;93.60;;;;;;5083138;28;20200;-60
2022/08/14 10:02:25;;;;;;;0.85;0.85;;;30.20;92.80;;;;;;5076401;28;20263;-60
2022/08/14 10:05:05;;;;;;;1.05;0.93;;;30.10;92.20;;;;;;5071886;28;20202;-61
2022/08/14 10:07:33;;;;;;;0.88;0.88;;;30.10;92.40;;;;;;5073019;28;20206;-61
2022/08/14 10:10:00;;;;;;;0.98;0.98;;;30.30;92.50;;;;;;5072657;28;20306;-60
2022/08/14 10:12:42;;;;;;;0.73;0.70;;;30.60;92.20;;;;;;5069234;28;20292;-61
2022/08/14 10:15:20;;;;;;;1.35;0.80;;;30.60;91.20;;;;;;5067909;28;20202;-59
2022/08/14 10:17:50;;;;;;;0.80;0.80;;;30.70;91.40;;;;;;5074378;28;20199;-61
2022/08/14 10:20:21;;;;;;;0.88;0.88;;;30.80;91.00;;;;;;5071999;28;20214;-61
2022/08/14 10:22:49;;;;;;;0.80;0.80;;;30.90;90.20;;;;;;5075283;28;20726;-61
2022/08/14 10:25:18;;;;;;;0.73;0.73;;;31.00;90.30;;;;;;5072418;28;20206;-61
2022/08/14 10:27:48;;;;;;;0.73;0.73;;;31.10;90.30;;;;;;5072133;28;20248;-60
2022/08/14 10:30:19;;;;;;;0.70;0.70;;;31.20;89.20;;;;;;5074582;28;20221;-60
2022/08/14 10:32:47;;;;;;;0.80;0.80;;;31.20;88.90;;;;;;5075542;28;20227;-60
2022/08/14 10:35:17;;;;;;;0.82;0.70;;;31.20;89.20;;;;;;5071572;28;20204;-60
2022/08/14 10:37:48;;;;;;;1.70;0.90;;;31.30;88.50;;;;;;5071881;28;20764;-61
2022/08/14 10:40:25;;;;;;;0.68;0.68;;;31.30;88.70;;;;;;5078405;28;20202;-60
2022/08/14 10:42:54;;;;;;;0.70;0.70;;;31.60;88.90;;;;;;5083179;28;20719;-61
2022/08/14 10:45:22;;;;;;;1.00;1.00;;;31.60;87.00;;;;;;5077306;28;20199;-61
2022/08/14 10:47:51;;;;;;;1.42;0.98;;;31.50;85.70;;;;;;5075952;28;20271;-60
2022/08/14 10:50:29;;;;;;;1.02;0.70;;;31.50;87.00;;;;;;5073601;28;20211;-60
2022/08/14 10:52:58;;;;;;;0.90;0.90;;;31.70;86.30;;;;;;5072542;28;20226;-61
2022/08/14 10:55:38;;;;;;;0.95;0.80;;;31.80;86.40;;;;;;5073656;28;20731;-60
2022/08/14 10:58:08;;;;;;;0.70;0.70;;;31.80;83.90;;;;;;5073278;28;20203;-61
2022/08/14 11:00:36;;;;;;;1.05;0.68;;;31.50;84.00;;;;;;5071763;28;20210;-61
2022/08/14 11:03:06;;;;;;;0.60;0.60;;;31.60;84.40;;;;;;5074099;28;20237;-60
2022/08/14 11:05:42;;;;;;;0.70;0.70;;;31.80;84.50;;;;;;5074554;28;20188;-60
2022/08/14 11:08:09;;;;;;;0.60;0.60;;;31.90;84.60;;;;;;5075760;28;20201;-61
2022/08/14 11:10:45;;;;;;;0.95;0.95;;;32.00;83.20;;;;;;5075803;28;20203;-61
2022/08/14 11:13:20;;;;;;;0.70;0.70;;;32.00;83.10;;;;;;5072925;28;20299;-60
2022/08/14 11:15:47;;;;;;;0.82;0.82;;;32.20;83.60;;;;;;5072995;28;20325;-60
2022/08/14 11:18:14;;;;;;;0.80;0.80;;;32.20;83.40;;;;;;5071265;28;20619;-61
2022/08/14 11:20:48;;;;;;;0.70;0.70;;;32.40;83.30;;;;;;5076098;28;20233;-61
2022/08/14 11:23:16;;;;;;;0.60;0.60;;;32.40;82.90;;;;;;5074089;28;20331;-61
2022/08/14 11:25:45;;;;;;;0.80;0.80;;;32.30;82.30;;;;;;5076755;28;20203;-61
2022/08/14 11:28:13;;;;;;;0.70;0.70;;;32.30;82.50;;;;;;5073172;28;20199;-61
2022/08/14 11:30:47;;;;;;;0.60;0.60;;;32.30;82.50;;;;;;5074416;28;20206;-61
2022/08/14 11:33:14;;;;;;;0.73;0.60;;;32.40;81.70;;;;;;5063923;28;20634;-61
2022/08/14 11:35:48;;;;;;;0.70;0.70;;;32.50;82.00;;;;;;5070682;28;20282;-61
2022/08/14 11:38:16;;;;;;;0.70;0.70;;;32.60;81.30;;;;;;5069353;28;20722;-61
2022/08/14 11:40:44;;;;;;;0.80;0.80;;;32.50;79.40;;;;;;5077436;28;20282;-61
2022/08/14 11:43:11;;;;;;;0.77;0.77;;;32.50;80.30;;;;;;5067971;28;20219;-61
2022/08/14 11:45:40;;;;;;;0.88;0.80;;;32.60;79.40;;;;;;5074415;28;20355;-61
2022/08/14 11:48:17;;;;;;;0.60;0.60;;;32.60;78.50;;;;;;5078455;28;20253;-61
2022/08/14 11:50:46;;;;;;;0.60;0.60;;;32.80;77.80;;;;;;5073977;28;20239;-61
2022/08/14 11:53:21;;;;;;;0.70;0.70;;;32.80;77.50;;;;;;5073766;28;20712;-61
2022/08/14 11:55:55;;;;;;;0.80;0.80;;;32.90;77.30;;;;;;5075370;28;20730;-61
2022/08/14 11:58:27;;;;;;;0.57;0.57;;;32.90;76.90;;;;;;5072670;28;20192;-61
2022/08/14 12:00:58;;;;;;;0.70;0.70;;;32.80;76.70;;;;;;5074940;28;20191;-61
2022/08/14 12:03:35;;;;;;;0.70;0.70;;;32.80;76.30;;;;;;5075171;28;20203;-60
2022/08/14 12:06:09;;;;;;;0.70;0.70;;;32.70;76.70;;;;;;5072745;28;20205;-62
2022/08/14 12:08:37;;;;;;;0.50;0.50;;;32.80;77.10;;;;;;5073999;28;20646;-60
2022/08/14 12:11:05;;;;;;;0.70;0.70;;;32.80;76.80;;;;;;5074532;28;20203;-62
2022/08/14 12:13:32;;;;;;;0.65;0.65;;;33.20;76.80;;;;;;5075397;28;20302;-60
2022/08/14 12:16:02;;;;;;;0.80;0.80;;;33.10;75.20;;;;;;5076053;28;20243;-61
2022/08/14 12:18:31;;;;;;;0.60;0.60;;;32.90;74.20;;;;;;5078243;28;20203;-61
2022/08/14 12:20:59;;;;;;;0.65;0.65;;;32.90;75.40;;;;;;5076436;28;20206;-61
2022/08/14 12:23:27;;;;;;;0.70;0.70;;;33.10;75.10;;;;;;5073701;28;20219;-61
2022/08/14 12:26:05;;;;;;;0.77;0.77;;;33.30;74.60;;;;;;5080552;28;20214;-60
2022/08/14 12:28:32;;;;;;;1.05;0.70;;;33.40;73.70;;;;;;5083930;28;20202;-62
2022/08/14 12:30:59;;;;;;;0.80;0.80;;;33.20;73.50;;;;;;5084628;28;20212;-62
2022/08/14 12:33:31;;;;;;;0.55;0.55;;;33.10;74.00;;;;;;5085415;28;20202;-62
2022/08/14 12:36:00;;;;;;;0.52;0.52;;;33.20;73.60;;;;;;5071221;28;20191;-62
2022/08/14 12:38:37;;;;;;;0.70;0.70;;;33.20;74.40;;;;;;5074128;28;20238;-61
2022/08/14 12:41:10;;;;;;;0.63;0.63;;;33.40;74.30;;;;;;5076314;28;20199;-61
2022/08/14 12:43:46;;;;;;;0.60;0.60;;;33.50;73.40;;;;;;5085105;28;20206;-60
2022/08/14 12:46:22;;;;;;;0.70;0.70;;;33.30;72.30;;;;;;5086111;28;20286;-60
2022/08/14 12:48:49;;;;;;;0.80;0.80;;;33.10;73.00;;;;;;5085853;28;20203;-61
2022/08/14 12:51:19;;;;;;;0.60;0.60;;;33.20;73.20;;;;;;5081861;28;20234;-61
2022/08/14 12:53:49;;;;;;;2.28;0.90;;;33.30;73.60;;;;;;5081194;28;20261;-61
2022/08/14 12:56:18;;;;;;;0.70;0.70;;;33.40;74.00;;;;;;5079694;28;20202;-61
2022/08/14 12:58:49;;;;;;;0.60;0.60;;;33.50;73.40;;;;;;5088158;28;20199;-60
2022/08/14 13:01:19;;;;;;;0.68;0.68;;;33.50;74.20;;;;;;5074475;28;20234;-61
2022/08/14 13:03:47;;;;;;;0.77;0.77;;;33.70;73.70;;;;;;5076772;28;20700;-61
2022/08/14 13:06:15;;;;;;;0.73;0.73;;;33.60;73.50;;;;;;5086194;28;20575;-62
2022/08/14 13:08:42;;;;;;;0.70;0.70;;;33.50;73.50;;;;;;5076324;28;20206;-60
2022/08/14 13:11:12;;;;;;;1.10;0.60;;;33.50;73.40;;;;;;5086242;28;20198;-60
2022/08/14 13:13:44;;;;;;;0.65;0.65;;;33.40;73.20;;;;;;5094236;28;20202;-60